»·PEaware :: ASA1013 KPDX-KBOI

ASA1013 :: KPDX-KBOI

FLIGHT INFORMATION

Flight Status: Arrived
Operator:
Alaska Airlines
More flights by this operator :: More flights under this callsign
Pilot: Joe C. (19058)
Aircraft: MCDONNELL-DOUGLAS MD-88
(MD88)
More flights by this aircraft type
Origin: KPDX Portland Intl
United States
Destination: KBOI Boise Air Terminal/Gowen
United States
More flights between these airports :: More routes between these airports
Route: WHAMY4 IMB HOSTS PARMO3
File this flight plan on PilotEdge
Remarks: RMK / SIMBRIEF
Altitude:
(Current/Filed)
31,000ft
Speed:
(Current/Filed)
436kts
Departed: 10-Mar-19 05:33 PM
Arrived: 10-Mar-19 06:30 PM
Distance/Time
Traveled:
298nm/0:57
Distance/Time
To Go:
Arrived

Flight Plot

Page will automatically refresh every two minutes.

Flight plan parsing failed; only flown route is shown


Map Options




Map Legend


Flown Route
Filed Route
Departure Airport
Arrival Airport
Navaid (VOR, NDB)
Fix

Horizontal Profiles

Position Reports

Time Latitude Longitude Heading Altitude Ground
Speed
10-Mar-19 17:09 45.591535 -122.597241 87 23ft 0kts
10-Mar-19 17:10 45.591535 -122.597241 87 23ft 0kts
10-Mar-19 17:11 45.591535 -122.597241 87 23ft 0kts
10-Mar-19 17:12 45.591535 -122.597241 87 23ft 0kts
10-Mar-19 17:12 45.591535 -122.597241 87 23ft 0kts
10-Mar-19 17:14 45.591535 -122.597241 87 23ft 0kts
10-Mar-19 17:15 45.591535 -122.597241 87 23ft 0kts
10-Mar-19 17:15 45.591535 -122.597241 87 23ft 0kts
10-Mar-19 17:16 45.591535 -122.597241 87 23ft 0kts
10-Mar-19 17:18 45.591535 -122.597241 87 23ft 0kts
10-Mar-19 17:18 45.591535 -122.597241 87 23ft 0kts
10-Mar-19 17:19 45.591535 -122.597241 87 23ft 0kts
10-Mar-19 17:20 45.591535 -122.597241 87 23ft 0kts
10-Mar-19 17:22 45.591535 -122.597241 87 23ft 0kts
10-Mar-19 17:22 45.591535 -122.597241 87 23ft 0kts
10-Mar-19 17:23 45.591535 -122.597241 87 23ft 0kts
10-Mar-19 17:24 45.591535 -122.597241 87 23ft 0kts
10-Mar-19 17:25 45.591353 -122.597620 13 23ft 2kts
10-Mar-19 17:26 45.591104 -122.597557 326 23ft 0kts
10-Mar-19 17:27 45.591104 -122.597557 326 23ft 0kts
10-Mar-19 17:28 45.591104 -122.597557 326 23ft 0kts
10-Mar-19 17:29 45.591233 -122.597677 326 23ft 9kts
10-Mar-19 17:30 45.593593 -122.597944 331 26ft 12kts
10-Mar-19 17:31 45.594355 -122.597648 42 26ft 0kts
10-Mar-19 17:32 45.594492 -122.594814 119 26ft 47kts
10-Mar-19 17:33 45.577289 -122.541858 100 2751ft 206kts
10-Mar-19 17:34 45.563148 -122.451154 103 6952ft 257kts
10-Mar-19 17:35 45.544273 -122.345363 108 11325ft 307kts
10-Mar-19 17:36 45.477238 -122.259438 140 15036ft 349kts
10-Mar-19 17:37 45.402271 -122.165997 134 19038ft 370kts
10-Mar-19 17:38 45.323705 -122.066303 132 22319ft 392kts
10-Mar-19 17:39 45.247275 -121.953441 112 25055ft 399kts
10-Mar-19 17:40 45.208627 -121.806612 103 27881ft 400kts
10-Mar-19 17:41 45.168476 -121.659647 102 30607ft 400kts
10-Mar-19 17:42 45.128344 -121.513503 101 31384ft 395kts
10-Mar-19 17:43 45.088984 -121.369604 101 31385ft 389kts
10-Mar-19 17:44 45.050208 -121.227236 102 31392ft 385kts
10-Mar-19 17:45 45.012263 -121.087200 103 31389ft 377kts
10-Mar-19 17:46 44.975487 -120.950994 104 31387ft 366kts
10-Mar-19 17:47 44.940547 -120.817408 104 31371ft 363kts
10-Mar-19 17:48 44.904979 -120.684254 104 31334ft 363kts
10-Mar-19 17:49 44.869297 -120.550782 104 31289ft 363kts
10-Mar-19 17:50 44.833838 -120.417634 104 31251ft 363kts
10-Mar-19 17:51 44.798455 -120.284179 104 31223ft 364kts
10-Mar-19 17:52 44.763195 -120.150595 104 31203ft 363kts
10-Mar-19 17:53 44.728185 -120.017387 104 31171ft 364kts
10-Mar-19 17:54 44.693273 -119.883947 104 31162ft 364kts
10-Mar-19 17:55 44.658450 -119.750278 103 31161ft 364kts
10-Mar-19 17:56 44.621216 -119.617811 106 31160ft 366kts
10-Mar-19 17:57 44.580692 -119.487086 107 31159ft 366kts
10-Mar-19 17:58 44.539957 -119.356236 106 31157ft 366kts
10-Mar-19 17:59 44.499207 -119.224907 107 31167ft 367kts
10-Mar-19 18:00 44.458756 -119.094077 107 31166ft 367kts
10-Mar-19 18:01 44.418439 -118.963081 107 31164ft 365kts
10-Mar-19 18:02 44.377639 -118.830362 105 31180ft 392kts
10-Mar-19 18:03 44.334396 -118.688702 105 31164ft 398kts
10-Mar-19 18:04 44.291197 -118.546801 105 31165ft 396kts
10-Mar-19 18:05 44.248417 -118.405674 105 31163ft 395kts
10-Mar-19 18:06 44.206165 -118.265737 105 31173ft 396kts
10-Mar-19 18:07 44.163779 -118.124771 105 31189ft 395kts
10-Mar-19 18:08 44.121380 -117.983184 105 31197ft 395kts
10-Mar-19 18:09 44.079192 -117.841612 105 30622ft 406kts
10-Mar-19 18:10 44.035298 -117.693745 105 28393ft 420kts
10-Mar-19 18:11 43.991028 -117.544028 106 26087ft 417kts
10-Mar-19 18:12 43.945199 -117.397604 110 23929ft 411kts
10-Mar-19 18:13 43.899419 -117.254860 112 21654ft 398kts
10-Mar-19 18:14 43.876685 -117.183818 112 20495ft 391kts
10-Mar-19 18:15 43.833736 -117.049407 112 18260ft 374kts
10-Mar-19 18:16 43.794096 -116.927369 112 16761ft 323kts
10-Mar-19 18:17 43.757611 -116.817431 118 15510ft 309kts
10-Mar-19 18:18 43.704214 -116.724317 128 13748ft 306kts
10-Mar-19 18:19 43.650978 -116.633650 128 12005ft 298kts
10-Mar-19 18:20 43.601364 -116.548586 128 10358ft 277kts
10-Mar-19 18:21 43.556609 -116.463405 113 8943ft 273kts
10-Mar-19 18:22 43.525115 -116.368628 114 7606ft 270kts
10-Mar-19 18:23 43.494243 -116.278635 115 7000ft 241kts
10-Mar-19 18:24 43.465254 -116.196046 114 5858ft 254kts
10-Mar-19 18:25 43.492115 -116.128379 19 4944ft 168kts
10-Mar-19 18:26 43.526821 -116.147444 330 4111ft 133kts
10-Mar-19 18:27 43.550794 -116.176470 287 3325ft 134kts
10-Mar-19 18:28 43.563598 -116.217550 297 2854ft 65kts
10-Mar-19 18:29 43.566677 -116.223996 357 2848ft 0kts
10-Mar-19 18:30 43.567131 -116.220782 23 2850ft 0kts

Navigation Log

Ident Type
Flight plan parsing failed, navigation log unavailable